createdAt,value
2022-11-27T00:02:19.356Z,105.60
2022-11-27T00:04:51.471Z,182.90
2022-11-27T00:07:23.419Z,136.10
2022-11-27T00:09:55.366Z,261.30
2022-11-27T00:12:27.252Z,163.80
2022-11-27T00:14:59.253Z,128.20
2022-11-27T00:17:31.232Z,118.30
2022-11-27T00:20:03.141Z,143.70
2022-11-27T00:22:35.080Z,128.80
2022-11-27T00:25:09.957Z,177.80
2022-11-27T00:27:41.901Z,150.60
2022-11-27T00:30:15.971Z,117.60
2022-11-27T00:32:48.234Z,190.20
2022-11-27T00:35:20.355Z,117.60
2022-11-27T00:37:52.317Z,98.30
2022-11-27T00:40:24.208Z,107.60
2022-11-27T00:42:56.140Z,104.80
2022-11-27T00:45:28.152Z,109.40
2022-11-27T00:48:00.144Z,114.30
2022-11-27T00:50:32.489Z,103.40
2022-11-27T00:53:04.481Z,108.10
2022-11-27T00:55:36.442Z,107.40
2022-11-27T00:58:08.403Z,107.80
2022-11-27T01:00:40.393Z,109.20
2022-11-27T01:03:12.643Z,98.20
2022-11-27T01:05:44.997Z,107.00
2022-11-27T01:08:16.975Z,105.10
2022-11-27T01:10:54.936Z,100.20
2022-11-27T01:13:29.989Z,102.50
2022-11-27T01:16:03.290Z,106.40
2022-11-27T01:18:36.554Z,105.20
2022-11-27T01:21:09.106Z,119.50
2022-11-27T01:23:41.507Z,120.80
2022-11-27T01:26:13.903Z,133.40
2022-11-27T01:28:46.869Z,124.10
2022-11-27T01:31:20.816Z,120.00
2022-11-27T01:33:55.964Z,111.70
2022-11-27T01:36:28.617Z,98.70
2022-11-27T01:39:01.046Z,110.50
2022-11-27T01:41:35.236Z,95.30
2022-11-27T01:44:44.393Z,97.30
2022-11-27T01:47:24.114Z,102.60
2022-11-27T01:49:59.867Z,96.40
2022-11-27T01:52:36.617Z,101.80
2022-11-27T01:55:13.879Z,113.20
2022-11-27T01:57:49.632Z,102.90
2022-11-27T02:00:22.613Z,115.20
2022-11-27T02:02:55.161Z,111.70
2022-11-27T02:05:29.340Z,96.30
2022-11-27T02:08:04.225Z,93.00
2022-11-27T02:10:42.428Z,87.50
2022-11-27T02:13:19.050Z,86.20
2022-11-27T02:15:57.524Z,85.00
2022-11-27T02:18:38.594Z,87.90
2022-11-27T02:21:18.469Z,93.20
2022-11-27T02:24:08.990Z,84.40
2022-11-27T02:27:04.654Z,84.00
2022-11-27T02:29:37.877Z,85.40
2022-11-27T02:32:17.010Z,80.90
2022-11-27T02:34:56.272Z,87.10
2022-11-27T02:37:35.635Z,93.90
2022-11-27T02:40:13.866Z,85.40
2022-11-27T02:42:50.387Z,81.00
2022-11-27T02:45:29.340Z,79.60
2022-11-27T02:48:02.378Z,78.00
2022-11-27T02:50:37.216Z,77.70
2022-11-27T02:53:13.653Z,78.40
2022-11-27T02:55:47.894Z,69.70
2022-11-27T02:58:23.978Z,80.20
2022-11-27T03:00:58.732Z,75.30
2022-11-27T03:03:35.432Z,81.90
2022-11-27T03:06:12.950Z,73.10
2022-11-27T03:08:53.468Z,88.50
2022-11-27T03:11:27.808Z,83.50
2022-11-27T03:14:04.409Z,78.20
2022-11-27T03:16:43.998Z,76.40
2022-11-27T03:19:21.057Z,78.10
2022-11-27T03:21:57.144Z,73.20
2022-11-27T03:24:30.360Z,76.10
2022-11-27T03:27:02.862Z,79.60
2022-11-27T03:29:39.689Z,83.30
2022-11-27T03:32:12.316Z,78.50
2022-11-27T03:34:44.564Z,72.20
2022-11-27T03:37:16.832Z,84.50
2022-11-27T03:39:49.097Z,75.40
2022-11-27T03:42:28.003Z,82.40
2022-11-27T03:45:08.159Z,87.80
2022-11-27T03:47:55.816Z,81.40
2022-11-27T03:50:41.936Z,93.20
2022-11-27T03:53:25.984Z,88.60
2022-11-27T03:56:09.770Z,76.70
2022-11-27T03:58:48.270Z,74.20
2022-11-27T04:01:24.619Z,78.30
2022-11-27T04:03:56.654Z,72.60
2022-11-27T04:06:28.687Z,79.00
2022-11-27T04:09:00.655Z,75.40
2022-11-27T04:11:32.691Z,73.90
2022-11-27T04:14:05.243Z,78.70
2022-11-27T04:16:37.280Z,81.90
2022-11-27T04:19:09.638Z,79.50
2022-11-27T04:21:41.568Z,85.00
2022-11-27T04:24:13.481Z,81.60
2022-11-27T04:26:45.418Z,82.10
2022-11-27T04:29:18.011Z,80.60
2022-11-27T04:31:50.080Z,80.90
2022-11-27T04:34:22.179Z,75.60
2022-11-27T04:36:54.143Z,74.80
2022-11-27T04:39:26.028Z,78.70
2022-11-27T04:41:58.043Z,75.70
2022-11-27T04:44:30.006Z,82.30
2022-11-27T04:47:02.775Z,84.50
2022-11-27T04:49:34.885Z,82.40
2022-11-27T04:52:07.366Z,87.90
2022-11-27T04:54:39.746Z,84.10
2022-11-27T04:57:11.909Z,88.20
2022-11-27T04:59:44.199Z,90.40
2022-11-27T05:02:16.185Z,87.90
2022-11-27T05:04:48.273Z,82.60
2022-11-27T05:07:20.264Z,85.40
2022-11-27T05:09:52.380Z,81.80
2022-11-27T05:12:24.369Z,76.00
2022-11-27T05:14:57.961Z,72.20
2022-11-27T05:17:32.676Z,75.10
2022-11-27T05:20:04.996Z,81.60
2022-11-27T05:22:37.010Z,73.90
2022-11-27T05:25:13.178Z,84.00
2022-11-27T05:27:45.058Z,73.40
2022-11-27T05:30:17.329Z,81.40
2022-11-27T05:32:49.294Z,82.90
2022-11-27T05:35:21.179Z,84.90
2022-11-27T05:37:53.118Z,78.90
2022-11-27T05:40:25.028Z,77.60
2022-11-27T05:42:56.991Z,69.70
2022-11-27T05:45:29.057Z,70.60
2022-11-27T05:48:00.996Z,66.70
2022-11-27T05:50:33.191Z,68.90
2022-11-27T05:53:05.155Z,77.90
2022-11-27T05:55:37.039Z,84.80
2022-11-27T05:58:09.028Z,74.70
2022-11-27T06:00:40.999Z,96.30
2022-11-27T06:03:13.396Z,92.60
2022-11-27T06:05:45.380Z,123.20
2022-11-27T06:08:17.317Z,550.70
2022-11-27T06:10:50.295Z,304.30
2022-11-27T06:13:22.217Z,503.10
2022-11-27T06:15:54.107Z,358.30
2022-11-27T06:18:26.094Z,419.70
2022-11-27T06:20:58.004Z,367.50
2022-11-27T06:23:30.300Z,139.10
2022-11-27T06:26:10.251Z,132.00
2022-11-27T06:28:42.650Z,85.30
2022-11-27T06:31:18.297Z,77.40
2022-11-27T06:33:51.696Z,76.80
2022-11-27T06:36:24.608Z,79.70
2022-11-27T06:38:57.035Z,90.80
2022-11-27T06:41:29.311Z,81.10
2022-11-27T06:44:03.392Z,83.70
2022-11-27T06:46:35.260Z,79.20
2022-11-27T06:49:07.394Z,74.40
2022-11-27T06:51:39.308Z,100.70
2022-11-27T06:54:11.192Z,205.70
2022-11-27T06:56:43.258Z,401.30
2022-11-27T06:59:15.682Z,407.80
2022-11-27T07:01:47.880Z,394.20
2022-11-27T07:04:19.846Z,364.20
2022-11-27T07:06:51.829Z,128.40
2022-11-27T07:09:23.845Z,105.50
2022-11-27T07:11:55.760Z,92.30
2022-11-27T07:14:27.694Z,117.20
2022-11-27T07:16:59.632Z,161.90
2022-11-27T07:19:31.909Z,189.10
2022-11-27T07:22:03.789Z,204.90
2022-11-27T07:24:35.862Z,181.50
2022-11-27T07:27:08.766Z,170.70
2022-11-27T07:29:40.702Z,157.60
2022-11-27T07:32:12.595Z,152.10
2022-11-27T07:34:44.476Z,203.50
2022-11-27T07:37:16.465Z,172.10
2022-11-27T07:40:02.490Z,213.20
2022-11-27T07:42:39.200Z,149.30
2022-11-27T07:45:14.063Z,121.00
2022-11-27T07:47:46.283Z,150.00
2022-11-27T07:50:18.195Z,131.20
2022-11-27T07:52:50.110Z,97.60
2022-11-27T07:55:22.075Z,89.00
2022-11-27T07:57:54.061Z,86.80
2022-11-27T08:00:26.108Z,115.10
2022-11-27T08:02:58.116Z,115.40
2022-11-27T08:05:30.181Z,111.30
2022-11-27T08:08:05.039Z,112.80
2022-11-27T08:13:09.937Z,153.30
2022-11-27T08:15:41.953Z,242.60
2022-11-27T08:18:13.893Z,113.60
2022-11-27T08:20:45.828Z,175.10
2022-11-27T08:23:17.715Z,161.60
2022-11-27T08:25:49.652Z,124.90
2022-11-27T08:28:21.948Z,112.80
2022-11-27T08:31:00.287Z,115.10
2022-11-27T08:33:33.324Z,89.70
2022-11-27T08:36:09.022Z,91.60
2022-11-27T08:38:43.215Z,105.90
2022-11-27T08:41:15.592Z,79.40
2022-11-27T08:43:47.582Z,99.20
2022-11-27T08:46:19.761Z,90.40
2022-11-27T08:48:51.999Z,97.90
2022-11-27T08:51:24.348Z,105.40
2022-11-27T08:53:56.278Z,105.80
2022-11-27T08:56:28.445Z,112.10
2022-11-27T08:59:00.434Z,104.50
2022-11-27T09:01:33.624Z,95.10
2022-11-27T09:04:06.412Z,104.70
2022-11-27T09:06:39.501Z,157.30
2022-11-27T09:09:11.763Z,128.40
2022-11-27T09:11:43.961Z,90.80
2022-11-27T09:14:15.850Z,91.30
2022-11-27T09:16:48.012Z,85.10
2022-11-27T09:19:21.703Z,78.50
2022-11-27T09:21:53.762Z,99.00
2022-11-27T09:24:26.061Z,108.50
2022-11-27T09:26:58.123Z,102.90
2022-11-27T09:29:30.318Z,109.40
2022-11-27T09:32:02.382Z,95.40
2022-11-27T09:34:37.461Z,99.50
2022-11-27T09:37:10.304Z,123.90
2022-11-27T09:39:42.159Z,100.10
2022-11-27T09:42:34.639Z,81.90
2022-11-27T09:45:12.975Z,86.80
2022-11-27T09:47:50.404Z,103.90
2022-11-27T09:50:27.249Z,86.90
2022-11-27T09:53:02.568Z,92.60
2022-11-27T09:55:39.027Z,95.90
2022-11-27T09:58:19.747Z,91.60
2022-11-27T10:00:51.813Z,98.00
2022-11-27T10:03:27.536Z,101.70
2022-11-27T10:06:15.860Z,108.50
2022-11-27T10:08:59.779Z,99.90
2022-11-27T10:11:36.247Z,89.70
2022-11-27T10:14:20.602Z,101.40
2022-11-27T10:16:56.926Z,90.50
2022-11-27T10:19:36.895Z,95.50
2022-11-27T10:22:21.032Z,84.00
2022-11-27T10:25:04.373Z,80.10
2022-11-27T10:27:45.148Z,83.00
2022-11-27T10:30:19.799Z,109.80
2022-11-27T10:32:57.099Z,89.30
2022-11-27T10:35:31.822Z,102.10
2022-11-27T10:38:12.094Z,117.10
2022-11-27T10:40:46.979Z,123.80
2022-11-27T10:43:22.298Z,109.30
2022-11-27T10:45:58.369Z,157.80
2022-11-27T10:48:30.475Z,159.70
2022-11-27T10:51:02.411Z,141.40
2022-11-27T10:53:36.573Z,225.40
2022-11-27T10:56:31.782Z,98.30
2022-11-27T10:59:07.584Z,125.70
2022-11-27T11:01:47.550Z,258.30
2022-11-27T11:04:43.012Z,329.40
2022-11-27T11:07:27.542Z,168.00
2022-11-27T11:09:59.650Z,81.00
2022-11-27T11:12:31.922Z,79.60
2022-11-27T11:15:11.862Z,101.90
2022-11-27T11:17:43.756Z,90.50
2022-11-27T11:20:22.481Z,151.70
2022-11-27T11:22:54.678Z,340.20
2022-11-27T11:25:26.698Z,229.80
2022-11-27T11:27:58.907Z,93.20
2022-11-27T11:30:31.715Z,162.20
2022-11-27T11:33:05.396Z,72.70
2022-11-27T11:35:38.617Z,68.60
2022-11-27T11:38:20.177Z,63.80
2022-11-27T11:41:02.563Z,277.10
2022-11-27T11:43:36.520Z,84.40
2022-11-27T11:46:18.332Z,71.40
2022-11-27T11:48:58.955Z,338.30
2022-11-27T11:52:00.743Z,435.10
2022-11-27T11:54:50.268Z,120.30
2022-11-27T11:57:42.994Z,178.30
2022-11-27T12:00:18.023Z,173.80
2022-11-27T12:03:09.678Z,152.80
2022-11-27T12:05:55.441Z,67.90
2022-11-27T12:08:40.484Z,99.10
2022-11-27T12:11:18.438Z,114.80
2022-11-27T12:14:07.070Z,89.40
2022-11-27T12:16:51.629Z,112.30
2022-11-27T12:19:48.703Z,100.90
2022-11-27T12:22:37.339Z,81.20
2022-11-27T12:25:27.117Z,112.00
2022-11-27T12:28:12.903Z,97.30
2022-11-27T12:30:50.886Z,79.40
2022-11-27T12:33:51.571Z,69.60
2022-11-27T12:36:34.770Z,112.80
2022-11-27T12:39:16.822Z,109.60
2022-11-27T12:42:00.201Z,65.20
2022-11-27T12:44:44.711Z,76.60
2022-11-27T12:47:23.944Z,89.00
2022-11-27T12:50:00.720Z,71.70
2022-11-27T12:52:38.905Z,70.80
2022-11-27T12:55:16.832Z,90.10
2022-11-27T12:57:53.690Z,90.50
2022-11-27T13:00:29.490Z,99.30
2022-11-27T13:03:08.337Z,163.60
2022-11-27T13:05:46.267Z,139.20
2022-11-27T13:08:22.968Z,90.10
2022-11-27T13:10:59.922Z,82.60
2022-11-27T13:13:38.618Z,95.40
2022-11-27T13:16:18.920Z,175.40
2022-11-27T13:18:55.934Z,157.60
2022-11-27T13:21:32.197Z,119.30
2022-11-27T13:24:05.086Z,104.50
2022-11-27T13:26:41.706Z,122.60
2022-11-27T13:29:22.886Z,99.80
2022-11-27T13:31:58.913Z,95.30
2022-11-27T13:34:34.005Z,69.70
2022-11-27T13:39:43.359Z,103.90
2022-11-27T13:42:22.828Z,91.80
2022-11-27T13:44:59.447Z,105.40
2022-11-27T13:47:41.423Z,90.50
2022-11-27T13:50:16.993Z,74.40
2022-11-27T13:53:00.074Z,76.70
2022-11-27T13:55:34.083Z,73.60
2022-11-27T13:58:08.295Z,80.50
2022-11-27T14:00:43.360Z,82.20
2022-11-27T14:05:57.248Z,88.90
2022-11-27T14:08:32.250Z,102.20
2022-11-27T14:13:40.505Z,115.10
2022-11-27T14:16:26.655Z,144.90
2022-11-27T14:19:01.481Z,154.30
2022-11-27T14:21:41.355Z,125.40
2022-11-27T14:24:41.066Z,115.80
2022-11-27T14:27:22.685Z,119.90
2022-11-27T14:29:54.957Z,150.50
2022-11-27T14:32:39.079Z,109.90
2022-11-27T14:35:24.916Z,94.50
2022-11-27T14:38:08.351Z,126.80
2022-11-27T14:40:40.644Z,137.70
2022-11-27T14:43:16.614Z,169.50
2022-11-27T14:45:50.819Z,133.40
2022-11-27T14:48:26.301Z,119.00
2022-11-27T14:50:59.201Z,107.40
2022-11-27T14:53:31.496Z,113.50
2022-11-27T14:56:04.971Z,101.50
2022-11-27T14:58:38.571Z,91.30
2022-11-27T15:01:22.799Z,93.40
2022-11-27T15:04:03.951Z,83.10
2022-11-27T15:06:40.805Z,99.90
2022-11-27T15:09:31.793Z,626.30
2022-11-27T15:12:16.041Z,236.90
2022-11-27T15:14:57.886Z,682.50
2022-11-27T15:17:32.025Z,523.00
2022-11-27T15:20:12.000Z,342.20
2022-11-27T15:22:51.541Z,363.50
2022-11-27T15:25:38.917Z,306.90
2022-11-27T15:28:29.571Z,759.60
2022-11-27T15:31:01.886Z,689.60
2022-11-27T15:33:35.006Z,1235.10
2022-11-27T15:36:20.180Z,837.40
2022-11-27T15:38:52.378Z,383.90
2022-11-27T15:41:26.717Z,278.40
2022-11-27T15:43:58.768Z,821.30
2022-11-27T15:46:35.737Z,655.00
2022-11-27T15:49:10.210Z,161.70
2022-11-27T15:51:42.427Z,321.20
2022-11-27T15:54:14.469Z,189.00
2022-11-27T15:56:47.103Z,248.30
2022-11-27T15:59:20.796Z,100.40
2022-11-27T16:01:53.002Z,77.50
2022-11-27T16:04:24.959Z,77.80
2022-11-27T16:06:56.987Z,94.50
2022-11-27T16:09:29.271Z,121.30
2022-11-27T16:12:01.211Z,147.90
2022-11-27T16:14:33.203Z,174.90
2022-11-27T16:17:05.091Z,122.20
2022-11-27T16:19:37.024Z,159.70
2022-11-27T16:22:09.017Z,174.10
2022-11-27T16:24:42.376Z,130.90
2022-11-27T16:27:14.653Z,110.10
2022-11-27T16:29:46.615Z,115.10
2022-11-27T16:32:18.549Z,147.20
2022-11-27T16:34:52.490Z,128.80
2022-11-27T16:37:25.093Z,106.80
2022-11-27T16:39:58.234Z,86.70
2022-11-27T16:42:30.239Z,147.20
2022-11-27T16:45:02.626Z,120.50
2022-11-27T16:47:34.634Z,122.60
2022-11-27T16:50:09.915Z,152.10
2022-11-27T16:52:42.276Z,81.50
2022-11-27T16:55:14.801Z,108.30
2022-11-27T16:57:47.280Z,71.60
2022-11-27T17:00:22.076Z,83.90
2022-11-27T17:02:54.054Z,137.20
2022-11-27T17:05:26.110Z,247.00
2022-11-27T17:07:58.219Z,122.60
2022-11-27T17:10:30.652Z,75.80
2022-11-27T17:13:02.746Z,65.50
2022-11-27T17:15:40.542Z,66.80
2022-11-27T17:18:13.865Z,98.80
2022-11-27T17:20:46.011Z,66.50
2022-11-27T17:23:18.302Z,89.10
2022-11-27T17:25:51.188Z,63.50
2022-11-27T17:28:23.714Z,68.70
2022-11-27T17:30:55.677Z,101.30
2022-11-27T17:33:28.283Z,125.70
2022-11-27T17:36:00.272Z,108.30
2022-11-27T17:38:32.734Z,105.10
2022-11-27T17:41:06.604Z,116.20
2022-11-27T17:43:40.947Z,109.40
2022-11-27T17:46:17.386Z,96.30
2022-11-27T17:48:50.890Z,95.40
2022-11-27T17:51:24.059Z,101.60
2022-11-27T17:53:56.788Z,113.60
2022-11-27T17:56:29.187Z,79.00
2022-11-27T17:59:01.586Z,108.20
2022-11-27T18:01:34.889Z,74.10
2022-11-27T18:04:07.605Z,93.00
2022-11-27T18:06:41.777Z,130.70
2022-11-27T18:09:14.765Z,76.90
2022-11-27T18:11:46.912Z,79.50
2022-11-27T18:14:19.099Z,77.90
2022-11-27T18:16:51.070Z,84.70
2022-11-27T18:19:23.622Z,110.30
2022-11-27T18:21:55.527Z,132.50
2022-11-27T18:24:27.722Z,75.70
2022-11-27T18:27:09.109Z,86.70
2022-11-27T18:29:44.832Z,121.30
2022-11-27T18:32:18.756Z,98.30
2022-11-27T18:34:52.804Z,64.30
2022-11-27T18:37:25.007Z,85.90
2022-11-27T18:39:57.064Z,68.60
2022-11-27T18:42:30.694Z,63.90
2022-11-27T18:45:03.988Z,53.40
2022-11-27T18:47:36.051Z,57.00
2022-11-27T18:50:10.705Z,83.70
2022-11-27T18:52:43.204Z,99.50
2022-11-27T18:55:15.170Z,80.90
2022-11-27T18:57:47.669Z,69.20
2022-11-27T19:00:21.426Z,51.20
2022-11-27T19:02:54.775Z,49.70
2022-11-27T19:05:27.040Z,47.60
2022-11-27T19:08:04.509Z,63.30
2022-11-27T19:10:36.520Z,64.80
2022-11-27T19:13:08.817Z,67.20
2022-11-27T19:15:42.857Z,66.00
2022-11-27T19:18:15.614Z,67.30
2022-11-27T19:20:49.114Z,92.50
2022-11-27T19:23:21.409Z,156.20
2022-11-27T19:25:53.756Z,121.20
2022-11-27T19:28:25.720Z,167.50
2022-11-27T19:30:57.785Z,178.20
2022-11-27T19:33:30.260Z,130.80
2022-11-27T19:36:04.244Z,101.90
2022-11-27T19:38:36.913Z,99.30
2022-11-27T19:41:13.831Z,65.60
2022-11-27T19:43:47.357Z,56.10
2022-11-27T19:46:21.640Z,58.90
2022-11-27T19:48:57.788Z,61.60
2022-11-27T19:51:33.195Z,56.00
2022-11-27T19:54:10.288Z,53.60
2022-11-27T19:56:44.248Z,55.90
2022-11-27T19:59:21.395Z,63.10
2022-11-27T20:01:58.456Z,63.20
2022-11-27T20:07:03.888Z,155.10
2022-11-27T20:09:36.098Z,207.30
2022-11-27T20:12:09.069Z,128.00
2022-11-27T20:14:41.572Z,73.00
2022-11-27T20:17:13.830Z,61.10
2022-11-27T20:19:45.948Z,76.50
2022-11-27T20:22:17.964Z,71.80
2022-11-27T20:25:17.169Z,54.40
2022-11-27T20:27:42.322Z,53.50
2022-11-27T20:30:16.457Z,46.80
2022-11-27T20:32:48.578Z,57.60
2022-11-27T20:35:20.734Z,64.80
2022-11-27T20:37:52.733Z,69.40
2022-11-27T20:40:25.911Z,67.80
2022-11-27T20:42:57.966Z,64.70
2022-11-27T20:45:29.886Z,69.00
2022-11-27T20:48:02.275Z,63.40
2022-11-27T20:50:34.955Z,72.80
2022-11-27T20:53:08.480Z,103.40
2022-11-27T20:55:40.473Z,67.10
2022-11-27T20:58:13.944Z,274.40
2022-11-27T21:00:46.059Z,234.40
2022-11-27T21:03:18.639Z,429.50
2022-11-27T21:05:51.651Z,227.50
2022-11-27T21:08:24.823Z,185.80
2022-11-27T21:10:57.191Z,93.10
2022-11-27T21:13:29.257Z,65.90
2022-11-27T21:16:02.193Z,89.10
2022-11-27T21:18:34.113Z,78.50
2022-11-27T21:21:12.519Z,72.30
2022-11-27T21:23:44.681Z,102.00
2022-11-27T21:26:16.891Z,94.20
2022-11-27T21:28:50.399Z,54.30
2022-11-27T21:31:24.657Z,104.30
2022-11-27T21:33:58.686Z,73.90
2022-11-27T21:36:33.337Z,98.60
2022-11-27T21:39:08.653Z,170.10
2022-11-27T21:41:40.644Z,188.60
2022-11-27T21:44:13.375Z,128.50
2022-11-27T21:46:45.620Z,125.30
2022-11-27T21:49:19.351Z,146.10
2022-11-27T21:51:54.958Z,119.90
2022-11-27T21:54:34.049Z,72.30
2022-11-27T21:57:06.429Z,80.30
2022-11-27T21:59:38.725Z,60.40
2022-11-27T22:02:13.211Z,55.20
2022-11-27T22:04:45.350Z,58.40
2022-11-27T22:07:17.344Z,54.20
2022-11-27T22:09:49.323Z,64.40
2022-11-27T22:12:21.460Z,62.80
2022-11-27T22:14:53.499Z,77.10
2022-11-27T22:17:25.513Z,96.10
2022-11-27T22:19:57.889Z,87.20
2022-11-27T22:22:30.977Z,124.60
2022-11-27T22:25:04.401Z,289.90
2022-11-27T22:27:36.363Z,162.10
2022-11-27T22:30:10.492Z,87.30
2022-11-27T22:32:43.042Z,72.40
2022-11-27T22:35:15.787Z,71.70
2022-11-27T22:37:47.877Z,279.70
2022-11-27T22:40:20.249Z,151.50
2022-11-27T22:42:53.084Z,133.50
2022-11-27T22:45:25.154Z,93.60
2022-11-27T22:47:57.268Z,151.30
2022-11-27T22:50:29.385Z,128.00
2022-11-27T22:53:01.321Z,83.60
2022-11-27T22:55:33.311Z,78.00
2022-11-27T22:58:05.304Z,57.90
2022-11-27T23:00:37.801Z,55.20
2022-11-27T23:03:09.804Z,56.10
2022-11-27T23:05:46.439Z,55.40
2022-11-27T23:08:19.097Z,49.10
2022-11-27T23:10:52.975Z,43.60
2022-11-27T23:13:24.913Z,74.10
2022-11-27T23:15:56.903Z,62.90
2022-11-27T23:18:28.840Z,71.20
2022-11-27T23:21:00.957Z,100.50
2022-11-27T23:23:33.074Z,100.60
2022-11-27T23:26:07.445Z,73.10
2022-11-27T23:28:39.905Z,110.70
2022-11-27T23:31:29.596Z,106.00
2022-11-27T23:34:04.482Z,148.70
2022-11-27T23:36:37.189Z,115.30
2022-11-27T23:39:12.299Z,97.50
2022-11-27T23:41:44.698Z,85.00
2022-11-27T23:44:16.612Z,79.10
2022-11-27T23:46:49.213Z,78.60
2022-11-27T23:49:21.485Z,70.70
2022-11-27T23:51:53.422Z,66.90
2022-11-27T23:54:25.282Z,82.00
2022-11-27T23:56:57.451Z,87.80
2022-11-27T23:59:29.415Z,121.40
